Time;durP1;ratioP1;P1;durP2;ratioP2;P2;SDS_P1;SDS_P2;PMS_P1;PMS_P2;Temp;Humidity;BMP_temperature;BMP_pressure;BME280_temperature;BME280_humidity;BME280_pressure;Samples;Min_cycle;Max_cycle;Signal;HPM_P1;HPM_P2
2023/04/04 00:00:15;;;;;;;7.45;3.00;;;;;;;0.55;89.77;102889.41;5049294;28;20029;-72
2023/04/04 00:02:40;;;;;;;6.63;3.42;;;;;;;0.63;88.59;102896.88;5047688;28;20025;-71
2023/04/04 00:05:07;;;;;;;7.82;2.97;;;;;;;0.60;88.45;102899.63;5048881;28;20120;-71
2023/04/04 00:07:33;;;;;;;6.45;2.90;;;;;;;0.64;89.07;102906.44;5049350;28;20040;-71
2023/04/04 00:09:58;;;;;;;12.43;3.38;;;;;;;0.50;88.65;102880.91;5049450;28;20029;-71
2023/04/04 00:12:24;;;;;;;5.88;3.40;;;;;;;0.69;88.34;102914.91;5049323;28;20045;-71
2023/04/04 00:14:50;;;;;;;6.65;4.35;;;;;;;0.50;88.40;102874.78;5049353;28;20047;-71
2023/04/04 00:17:16;;;;;;;8.73;2.47;;;;;;;0.65;87.43;102905.50;5047988;28;20033;-71
2023/04/04 00:19:41;;;;;;;3.90;2.60;;;;;;;0.52;87.32;102875.56;5049185;28;20488;-71
2023/04/04 00:22:07;;;;;;;8.02;3.38;;;;;;;0.75;87.35;102914.59;5047772;28;20036;-71
2023/04/04 00:24:33;;;;;;;7.88;3.42;;;;;;;0.60;86.87;102879.50;5048932;28;20044;-71
2023/04/04 00:26:58;;;;;;;4.53;3.30;;;;;;;0.55;87.07;102872.78;5047967;28;20036;-71
2023/04/04 00:29:24;;;;;;;8.32;2.67;;;;;;;0.75;86.59;102908.47;5049021;28;20029;-71
2023/04/04 00:31:49;;;;;;;8.27;2.78;;;;;;;0.75;86.33;102914.59;5049145;28;20028;-71
2023/04/04 00:34:14;;;;;;;9.35;3.35;;;;;;;0.57;86.50;102877.00;5049008;28;20134;-71
2023/04/04 00:36:40;;;;;;;5.10;2.97;;;;;;;0.78;85.45;102903.06;5048977;28;20071;-71
2023/04/04 00:39:06;;;;;;;6.25;2.80;;;;;;;0.80;86.01;102909.94;5049012;28;20052;-71
2023/04/04 00:41:31;;;;;;;7.00;3.10;;;;;;;0.70;85.69;102894.75;5047910;28;20128;-71
2023/04/04 00:43:57;;;;;;;8.43;2.83;;;;;;;0.66;85.16;102894.06;5049210;28;20025;-71
2023/04/04 00:46:24;;;;;;;4.28;2.33;;;;;;;0.65;84.90;102889.72;5047638;28;20048;-71
2023/04/04 00:48:50;;;;;;;7.55;3.30;;;;;;;0.64;85.03;102891.50;5048864;28;20115;-71
2023/04/04 00:51:15;;;;;;;5.70;2.45;;;;;;;0.64;84.82;102886.28;5048654;28;20116;-71
2023/04/04 00:53:44;;;;;;;11.25;3.55;;;;;;;0.56;85.11;102875.31;5048690;28;20932;-71
2023/04/04 00:56:09;;;;;;;5.80;2.80;;;;;;;0.77;85.06;102904.00;5048826;28;20044;-71
2023/04/04 00:58:35;;;;;;;6.32;3.20;;;;;;;0.76;84.67;102911.03;5048713;28;20033;-71
2023/04/04 01:01:01;;;;;;;6.38;2.90;;;;;;;0.52;84.60;102865.91;5048643;28;20037;-71
2023/04/04 01:03:26;;;;;;;6.70;2.95;;;;;;;0.76;84.24;102908.41;5047632;28;20028;-71
2023/04/04 01:05:53;;;;;;;6.10;2.80;;;;;;;0.70;84.51;102890.34;5048707;28;20349;-71
2023/04/04 01:08:23;;;;;;;4.28;2.90;;;;;;;0.73;84.61;102903.31;5047572;28;20507;-71
2023/04/04 01:10:49;;;;;;;7.47;3.85;;;;;;;0.73;84.62;102900.69;5048615;28;20392;-71
2023/04/04 01:13:15;;;;;;;7.63;2.72;;;;;;;0.52;84.96;102865.91;5047448;28;20045;-71
2023/04/04 01:15:41;;;;;;;5.70;3.25;;;;;;;0.69;84.60;102893.91;5050920;28;20110;-71
2023/04/04 01:18:10;;;;;;;6.65;2.38;;;;;;;0.58;85.48;102875.25;5052424;28;20033;-71
2023/04/04 01:20:43;;;;;;;6.97;2.80;;;;;;;0.46;86.44;102862.78;5051084;28;20029;-71
2023/04/04 01:23:09;;;;;;;10.35;4.50;;;;;;;0.40;86.84;102863.94;5051108;28;20021;-71
2023/04/04 01:25:35;;;;;;;7.22;3.47;;;;;;;0.24;87.32;102844.66;5052548;28;20089;-71
2023/04/04 01:28:01;;;;;;;6.55;3.00;;;;;;;0.18;87.24;102844.06;5050869;28;20112;-71
2023/04/04 01:30:30;;;;;;;5.07;3.17;;;;;;;0.25;88.68;102864.75;5050587;28;20044;-71
2023/04/04 01:33:00;;;;;;;6.43;2.90;;;;;;;0.31;88.60;102881.00;5052209;28;21081;-71
2023/04/04 01:35:49;;;;;;;5.97;2.97;;;;;;;0.08;89.19;102848.09;5052128;28;20116;-72
2023/04/04 01:38:26;;;;;;;10.05;3.30;;;;;;;0.18;89.19;102869.44;5052213;28;20029;-71
2023/04/04 01:40:56;;;;;;;5.20;3.10;;;;;;;0.06;89.33;102864.84;5051877;28;20154;-71
2023/04/04 01:43:22;;;;;;;6.50;4.85;;;;;;;-0.11;89.42;102844.69;5050782;28;20048;-71
2023/04/04 01:45:48;;;;;;;6.05;2.67;;;;;;;-0.13;91.37;102854.41;5050484;28;20021;-71
2023/04/04 01:48:15;;;;;;;7.75;3.78;;;;;;;-0.27;90.51;102834.13;5051855;28;20041;-71
2023/04/04 01:50:40;;;;;;;7.35;3.90;;;;;;;-0.26;91.22;102836.69;5051656;28;20107;-71
2023/04/04 01:53:06;;;;;;;8.32;3.15;;;;;;;-0.12;92.76;102880.56;5050021;28;20140;-71
2023/04/04 01:55:31;;;;;;;9.57;4.05;;;;;;;-0.15;92.33;102872.88;5052053;28;20495;-71
2023/04/04 01:57:57;;;;;;;8.70;3.90;;;;;;;-0.37;91.82;102848.63;5051656;28;20044;-71
2023/04/04 02:00:22;;;;;;;6.47;3.20;;;;;;;-0.17;92.74;102876.50;5051576;28;20036;-71
2023/04/04 02:02:47;;;;;;;10.65;3.70;;;;;;;-0.36;92.79;102839.88;5050290;28;20044;-71
2023/04/04 02:05:13;;;;;;;7.53;4.25;;;;;;;-0.18;93.05;102872.16;5051555;28;20043;-71
2023/04/04 02:07:38;;;;;;;7.68;2.90;;;;;;;-0.24;93.73;102879.44;5050334;28;20032;-71
2023/04/04 02:10:04;;;;;;;5.43;2.90;;;;;;;-0.37;93.18;102861.75;5050065;28;20392;-71
2023/04/04 02:12:29;;;;;;;5.30;2.45;;;;;;;-0.49;92.83;102845.69;5050228;28;20068;-71
2023/04/04 02:14:55;;;;;;;8.48;3.63;;;;;;;-0.49;91.97;102840.47;5049935;28;20070;-71
2023/04/04 02:17:20;;;;;;;7.15;3.70;;;;;;;-0.40;92.44;102852.25;5051566;28;20041;-71
2023/04/04 02:19:45;;;;;;;10.15;4.22;;;;;;;-0.23;92.02;102881.13;5051407;28;20025;-71
2023/04/04 02:22:11;;;;;;;6.28;3.13;;;;;;;-0.32;91.61;102860.56;5051274;28;20037;-71
2023/04/04 02:24:36;;;;;;;7.68;3.58;;;;;;;-0.19;91.23;102876.56;5051335;28;20040;-71
2023/04/04 02:27:03;;;;;;;4.97;2.90;;;;;;;-0.18;91.47;102886.13;5049893;28;20032;-71
2023/04/04 02:29:28;;;;;;;10.27;4.00;;;;;;;-0.18;91.86;102894.00;5049766;28;20368;-71
2023/04/04 02:31:54;;;;;;;6.88;2.95;;;;;;;-0.19;91.23;102892.28;5051113;28;20029;-71
2023/04/04 02:34:19;;;;;;;7.65;4.05;;;;;;;-0.19;91.38;102897.53;5049610;28;20123;-71
2023/04/04 02:36:44;;;;;;;7.72;3.35;;;;;;;-0.43;91.34;102854.19;5050947;28;20037;-71
2023/04/04 02:39:10;;;;;;;8.98;3.92;;;;;;;-0.29;91.07;102875.31;5050731;28;20032;-71
2023/04/04 02:41:35;;;;;;;8.50;3.75;;;;;;;-0.17;91.33;102890.44;5049682;28;20095;-71
2023/04/04 02:44:01;;;;;;;5.80;3.22;;;;;;;-0.39;90.60;102853.97;5050634;28;20051;-71
2023/04/04 02:46:26;;;;;;;8.70;3.63;;;;;;;-0.31;90.45;102866.69;5049402;28;20403;-71
2023/04/04 02:48:51;;;;;;;4.18;2.90;;;;;;;-0.17;90.72;102882.56;5049445;28;20037;-71
2023/04/04 02:51:17;;;;;;;9.20;4.07;;;;;;;-0.40;90.64;102844.38;5050721;28;20029;-71
2023/04/04 02:53:42;;;;;;;6.43;3.28;;;;;;;-0.26;90.38;102868.16;5050463;28;20125;-71
2023/04/04 02:56:08;;;;;;;11.02;5.47;;;;;;;-0.26;90.67;102867.31;5050397;28;20025;-71
2023/04/04 02:58:33;;;;;;;10.43;3.75;;;;;;;-0.30;90.20;102863.13;5050555;28;20101;-71
2023/04/04 03:00:59;;;;;;;7.65;3.78;;;;;;;-0.22;90.39;102871.47;5050316;28;20019;-71
2023/04/04 03:03:25;;;;;;;6.32;3.80;;;;;;;-0.30;90.39;102852.66;5050560;28;20561;-71
2023/04/04 03:05:50;;;;;;;6.88;3.75;;;;;;;-0.39;90.15;102848.72;5050359;28;20039;-71
2023/04/04 03:08:16;;;;;;;8.02;3.38;;;;;;;-0.43;90.30;102841.06;5050542;28;20056;-71
2023/04/04 03:10:43;;;;;;;6.95;4.20;;;;;;;-0.39;89.94;102840.00;5048985;28;20116;-71
2023/04/04 03:13:09;;;;;;;8.45;3.10;;;;;;;-0.19;90.30;102873.09;5050218;28;20033;-71
2023/04/04 03:15:34;;;;;;;9.73;3.42;;;;;;;-0.20;90.08;102874.03;5050099;28;20383;-71
2023/04/04 03:18:00;;;;;;;11.25;3.97;;;;;;;-0.43;90.19;102843.69;5048771;28;20041;-71
2023/04/04 03:20:25;;;;;;;7.90;3.40;;;;;;;-0.41;89.82;102844.47;5048744;28;20112;-71
2023/04/04 03:22:51;;;;;;;6.75;3.33;;;;;;;-0.49;90.46;102834.38;5050119;28;20037;-71
2023/04/04 03:25:16;;;;;;;7.35;3.70;;;;;;;-0.27;90.76;102869.06;5048763;28;20468;-72
2023/04/04 03:27:42;;;;;;;8.82;3.72;;;;;;;-0.33;90.43;102864.13;5049986;28;20044;-72
2023/04/04 03:30:08;;;;;;;5.90;2.97;;;;;;;-0.31;90.74;102867.53;5048422;28;20025;-71
2023/04/04 03:32:34;;;;;;;5.60;3.53;;;;;;;-0.50;90.55;102844.00;5050059;28;20071;-71
2023/04/04 03:34:59;;;;;;;8.77;3.95;;;;;;;-0.52;90.71;102834.53;5049850;28;20029;-72
2023/04/04 03:37:25;;;;;;;9.60;2.92;;;;;;;-0.54;90.61;102831.13;5049753;28;20101;-71
2023/04/04 03:39:50;;;;;;;6.82;3.65;;;;;;;-0.36;91.54;102863.44;5049842;28;20525;-72
2023/04/04 03:42:16;;;;;;;8.93;3.40;;;;;;;-0.40;92.32;102865.34;5049685;28;21026;-72
2023/04/04 03:44:41;;;;;;;7.57;3.53;;;;;;;-0.48;91.90;102852.63;5048463;28;20583;-72
2023/04/04 03:47:07;;;;;;;7.72;3.60;;;;;;;-0.67;91.99;102823.00;5048415;28;20032;-71
2023/04/04 03:49:35;;;;;;;5.28;3.05;;;;;;;-0.58;93.26;102846.13;5049413;28;20029;-72
2023/04/04 03:52:03;;;;;;;9.43;3.60;;;;;;;-0.57;93.42;102849.63;5048003;28;20544;-71
2023/04/04 03:54:29;;;;;;;9.88;3.22;;;;;;;-0.89;93.84;102813.56;5048991;28;20056;-71
2023/04/04 03:56:56;;;;;;;9.65;4.85;;;;;;;-0.79;93.02;102820.97;5049443;28;20025;-71
2023/04/04 03:59:21;;;;;;;6.20;3.60;;;;;;;-0.79;92.64;102820.97;5049524;28;20036;-71
2023/04/04 04:01:47;;;;;;;8.50;3.15;;;;;;;-0.61;92.49;102858.53;5049142;28;20064;-71
2023/04/04 04:04:12;;;;;;;9.10;3.20;;;;;;;-0.67;93.22;102857.91;5049180;28;20041;-71
2023/04/04 04:06:37;;;;;;;8.68;3.65;;;;;;;-0.88;93.36;102822.28;5049449;28;20040;-71
2023/04/04 04:09:03;;;;;;;12.02;3.95;;;;;;;-0.74;93.92;102853.03;5049360;28;20032;-71
2023/04/04 04:11:29;;;;;;;8.57;4.22;;;;;;;-1.03;93.86;102805.50;5049314;28;20033;-71
2023/04/04 04:13:54;;;;;;;14.65;4.07;;;;;;;-0.98;93.50;102821.84;5049008;28;20029;-72
2023/04/04 04:16:23;;;;;;;9.30;3.70;;;;;;;-0.76;93.75;102847.91;5047792;28;20028;-71
2023/04/04 04:18:48;;;;;;;8.65;3.72;;;;;;;-0.76;94.00;102847.91;5049207;28;20032;-71
2023/04/04 04:21:14;;;;;;;8.45;3.50;;;;;;;-0.88;93.34;102835.38;5049012;28;20029;-71
2023/04/04 04:23:39;;;;;;;6.45;3.65;;;;;;;-0.86;94.29;102836.16;5047523;28;20494;-71
2023/04/04 04:26:05;;;;;;;9.23;4.32;;;;;;;-0.80;94.52;102848.09;5048038;28;20032;-71
2023/04/04 04:28:31;;;;;;;7.53;2.80;;;;;;;-0.82;94.95;102837.69;5049126;28;20639;-71
2023/04/04 04:31:06;;;;;;;7.95;3.63;;;;;;;-0.94;94.25;102820.81;5048999;28;20387;-71
2023/04/04 04:33:32;;;;;;;10.40;3.65;;;;;;;-0.96;94.04;102822.66;5048989;28;20060;-71
2023/04/04 04:36:05;;;;;;;6.50;3.33;;;;;;;-0.94;94.18;102826.03;5049182;28;20024;-71
2023/04/04 04:38:31;;;;;;;8.95;4.45;;;;;;;-1.01;94.26;102818.53;5048679;28;20024;-71
2023/04/04 04:40:56;;;;;;;9.40;4.55;;;;;;;-0.95;94.33;102826.09;5048861;28;20021;-71
2023/04/04 04:43:23;;;;;;;8.18;4.28;;;;;;;-0.97;94.68;102827.94;5047748;28;20029;-71
2023/04/04 04:45:49;;;;;;;7.47;3.67;;;;;;;-1.02;94.97;102822.06;5047736;28;20108;-71
2023/04/04 04:48:18;;;;;;;9.70;4.85;;;;;;;-1.06;94.94;102816.13;5048864;28;20029;-71
2023/04/04 04:50:44;;;;;;;7.00;3.47;;;;;;;-1.01;95.44;102829.88;5051343;28;20496;-72
2023/04/04 04:53:10;;;;;;;26.40;4.45;;;;;;;-0.90;95.56;102855.53;5052656;28;20545;-72
2023/04/04 04:55:35;;;;;;;9.10;4.55;;;;;;;-0.92;95.88;102862.63;5051708;28;20037;-72
2023/04/04 04:58:02;;;;;;;8.25;4.13;;;;;;;-0.94;96.02;102862.72;5051443;28;20029;-71
2023/04/04 05:00:27;;;;;;;6.30;3.60;;;;;;;-1.07;95.33;102842.38;5052697;28;20087;-74
2023/04/04 05:02:56;;;;;;;9.02;4.07;;;;;;;-1.02;95.72;102851.75;5052784;28;20025;-73
2023/04/04 05:05:22;;;;;;;8.07;4.55;;;;;;;-1.00;95.71;102857.75;5052254;28;20032;-74
2023/04/04 05:07:47;;;;;;;10.93;4.07;;;;;;;-0.94;95.62;102869.72;5051029;28;20025;-72
2023/04/04 05:10:19;;;;;;;8.82;4.60;;;;;;;-0.97;96.14;102867.22;5052341;28;20025;-73
2023/04/04 05:12:44;;;;;;;10.68;4.50;;;;;;;-1.05;95.73;102854.47;5036291;28;20457;-69
2023/04/04 05:15:11;;;;;;;7.15;4.30;;;;;;;-1.22;96.91;102836.09;5038610;28;20037;-70
2023/04/04 05:17:36;;;;;;;10.48;4.28;;;;;;;-1.21;96.97;102836.03;5037043;28;20037;-70
2023/04/04 05:20:02;;;;;;;10.27;4.75;;;;;;;-1.19;96.36;102842.03;5037885;28;20036;-69
2023/04/04 05:22:27;;;;;;;7.55;3.88;;;;;;;-1.04;96.18;102865.84;5036709;28;20034;-69
2023/04/04 05:24:53;;;;;;;11.23;4.72;;;;;;;-0.93;95.75;102879.25;5037520;28;20025;-69
2023/04/04 05:27:18;;;;;;;8.02;3.60;;;;;;;-0.92;95.97;102881.81;5036669;28;20112;-73
2023/04/04 05:29:45;;;;;;;9.10;4.65;;;;;;;-0.92;96.50;102870.47;5038621;28;20061;-73
2023/04/04 05:32:11;;;;;;;9.80;4.47;;;;;;;-0.96;96.26;102871.56;5036845;28;20032;-72
2023/04/04 05:34:36;;;;;;;8.02;4.10;;;;;;;-0.95;96.42;102868.84;5037246;28;20031;-72
2023/04/04 05:37:02;;;;;;;7.57;3.83;;;;;;;-0.95;97.03;102875.88;5038483;28;20025;-72
2023/04/04 05:39:27;;;;;;;10.50;4.22;;;;;;;-0.95;97.21;102881.94;5036597;28;20033;-72
2023/04/04 05:41:53;;;;;;;6.45;4.25;;;;;;;-1.07;97.58;102861.59;5035839;28;20075;-72
2023/04/04 05:44:18;;;;;;;11.23;5.50;;;;;;;-0.90;97.95;102881.75;5037864;28;20021;-72
2023/04/04 05:46:43;;;;;;;18.70;5.45;;;;;;;-0.83;97.97;102887.56;5037522;28;20067;-72
2023/04/04 05:49:09;;;;;;;6.18;4.20;;;;;;;-0.80;97.97;102893.47;5037404;28;20063;-73
2023/04/04 05:51:34;;;;;;;5.78;3.80;;;;;;;-0.76;97.98;102894.19;5037786;28;20027;-72
2023/04/04 05:54:00;;;;;;;7.95;4.38;;;;;;;-0.69;96.33;102898.22;5036850;28;20164;-73
2023/04/04 05:56:25;;;;;;;9.60;4.50;;;;;;;-0.63;96.56;102897.06;5037999;28;20025;-72
2023/04/04 05:58:50;;;;;;;13.45;5.32;;;;;;;-0.54;96.25;102889.63;5037375;28;20104;-72
2023/04/04 06:01:17;;;;;;;7.75;3.85;;;;;;;-0.47;95.91;102874.47;5035450;28;20060;-71
2023/04/04 06:03:42;;;;;;;8.88;4.10;;;;;;;-0.36;95.34;102889.66;5036857;28;20956;-69
2023/04/04 06:06:08;;;;;;;8.70;4.75;;;;;;;-0.29;94.71;102884.06;5037662;28;20071;-72
2023/04/04 06:08:33;;;;;;;10.15;5.15;;;;;;;-0.18;94.54;102886.13;5036855;28;20094;-73
2023/04/04 06:10:59;;;;;;;11.73;6.25;;;;;;;-0.06;94.95;102884.66;5036383;28;20693;-73
2023/04/04 06:13:24;;;;;;;12.27;5.70;;;;;;;0.13;93.21;102890.69;5037851;28;20033;-72
2023/04/04 06:15:50;;;;;;;7.70;4.78;;;;;;;0.34;92.33;102894.00;5036324;28;20064;-74
2023/04/04 06:18:16;;;;;;;8.43;4.90;;;;;;;0.17;92.14;102839.75;5036058;28;20072;-73
2023/04/04 06:20:41;;;;;;;9.70;5.03;;;;;;;0.72;91.42;102906.88;5035222;28;20574;-73
2023/04/04 06:23:08;;;;;;;10.07;5.68;;;;;;;0.89;90.50;102903.31;5036838;28;20040;-72
2023/04/04 06:25:37;;;;;;;11.60;5.90;;;;;;;0.95;89.79;102904.81;5037026;28;20021;-71
2023/04/04 06:28:03;;;;;;;12.77;6.45;;;;;;;1.04;90.12;102902.50;5036930;28;20036;-69
2023/04/04 06:30:29;;;;;;;12.18;6.18;;;;;;;1.12;89.27;102909.13;5036518;28;20024;-73
2023/04/04 06:32:54;;;;;;;13.57;5.70;;;;;;;1.12;87.21;102906.50;5037104;28;21701;-72
2023/04/04 06:35:20;;;;;;;13.63;6.18;;;;;;;1.15;88.16;102908.94;5037234;28;20124;-73
2023/04/04 06:37:46;;;;;;;11.15;4.90;;;;;;;1.16;87.38;102911.50;5035605;28;20029;-76
2023/04/04 06:40:12;;;;;;;12.63;5.97;;;;;;;1.17;86.56;102907.09;5036549;28;20079;-77
2023/04/04 06:42:37;;;;;;;9.18;5.35;;;;;;;1.42;85.69;102909.22;5044983;28;20033;-74
2023/04/04 06:45:02;;;;;;;7.57;5.15;;;;;;;1.54;85.90;102911.13;5050636;28;20573;-75
2023/04/04 06:47:28;;;;;;;12.13;5.93;;;;;;;1.52;86.14;102899.88;5050429;28;20037;-75
2023/04/04 06:49:53;;;;;;;33.45;7.65;;;;;;;1.56;86.84;102917.16;5049609;28;20131;-75
2023/04/04 06:52:18;;;;;;;10.18;5.45;;;;;;;1.53;85.98;102909.44;5049253;28;20063;-75
2023/04/04 06:54:44;;;;;;;9.43;5.53;;;;;;;1.64;85.89;102914.09;5050305;28;20061;-75
2023/04/04 06:57:10;;;;;;;13.52;5.57;;;;;;;1.66;86.11;102914.88;5050856;28;20037;-76
2023/04/04 06:59:35;;;;;;;9.52;5.93;;;;;;;1.78;86.77;102913.31;5050487;28;20630;-76
2023/04/04 07:02:00;;;;;;;13.68;6.05;;;;;;;1.91;86.49;102909.03;5049680;28;20093;-76
2023/04/04 07:04:26;;;;;;;13.80;6.68;;;;;;;1.94;87.09;102909.72;5050413;28;20094;-75
2023/04/04 07:06:51;;;;;;;9.75;6.22;;;;;;;2.09;87.25;102921.09;5050233;28;20032;-76
2023/04/04 07:09:17;;;;;;;9.75;5.97;;;;;;;2.04;85.90;102907.38;5049493;28;20036;-76
2023/04/04 07:11:42;;;;;;;10.98;6.05;;;;;;;2.17;85.79;102905.75;5049983;28;20025;-75
2023/04/04 07:14:08;;;;;;;12.48;6.55;;;;;;;2.37;84.53;102930.03;5048495;28;20021;-76
2023/04/04 07:16:35;;;;;;;8.68;5.30;;;;;;;2.39;83.10;102917.63;5050282;28;20037;-76
2023/04/04 07:19:00;;;;;;;11.55;5.03;;;;;;;2.44;81.84;102923.47;5050081;28;20052;-76
2023/04/04 07:21:26;;;;;;;7.20;5.03;;;;;;;2.50;82.57;102916.97;5050014;28;20053;-76
2023/04/04 07:23:52;;;;;;;8.55;4.90;;;;;;;2.52;80.92;102921.19;5050150;28;20033;-75
2023/04/04 07:26:17;;;;;;;9.85;6.07;;;;;;;2.55;80.16;102918.38;5048743;28;20400;-75
2023/04/04 07:28:42;;;;;;;9.27;4.50;;;;;;;2.59;80.51;102909.38;5049891;28;20032;-76
2023/04/04 07:31:08;;;;;;;9.50;5.38;;;;;;;2.64;81.44;102912.53;5041406;28;20708;-77
2023/04/04 07:33:33;;;;;;;11.68;5.20;;;;;;;2.70;79.83;102906.06;5034412;28;20123;-76
2023/04/04 07:36:02;;;;;;;10.13;5.07;;;;;;;2.92;79.69;102899.47;5034871;28;20107;-76
2023/04/04 07:38:28;;;;;;;11.45;4.88;;;;;;;2.98;79.42;102897.28;5035920;28;20029;-75
2023/04/04 07:40:54;;;;;;;10.57;4.82;;;;;;;3.07;78.37;102907.25;5035867;28;20036;-75
2023/04/04 07:43:20;;;;;;;11.05;4.80;;;;;;;3.11;76.96;102896.50;5047617;28;20468;-75
2023/04/04 07:45:45;;;;;;;10.85;5.72;;;;;;;3.27;77.05;102905.13;5048790;28;20090;-73
2023/04/04 07:48:11;;;;;;;12.02;5.28;;;;;;;3.51;75.89;102903.56;5048748;28;20078;-72
2023/04/04 07:50:36;;;;;;;12.70;5.53;;;;;;;3.72;76.18;102909.22;5048536;28;20108;-72
2023/04/04 07:53:03;;;;;;;9.18;5.05;;;;;;;3.80;75.33;102918.41;5048974;28;20056;-72
2023/04/04 07:55:28;;;;;;;9.98;5.45;;;;;;;3.93;74.77;102911.41;5048811;28;20089;-72
2023/04/04 07:57:53;;;;;;;11.27;5.30;;;;;;;4.04;74.61;102915.97;5047197;28;20046;-72
2023/04/04 08:00:20;;;;;;;11.65;6.07;;;;;;;4.09;75.73;102906.78;5047640;28;20029;-72
2023/04/04 08:02:53;;;;;;;16.02;5.63;;;;;;;4.25;73.61;102906.59;5047931;28;20036;-72
2023/04/04 08:05:18;;;;;;;11.82;4.80;;;;;;;4.15;72.10;102908.16;5047812;28;20028;-72
2023/04/04 08:07:44;;;;;;;13.27;4.90;;;;;;;4.16;73.06;102913.31;5047903;28;20029;-72
2023/04/04 08:10:10;;;;;;;8.30;4.53;;;;;;;4.28;73.25;102897.59;5047905;28;20147;-72
2023/04/04 08:12:35;;;;;;;8.80;4.35;;;;;;;4.39;70.73;102892.44;5049345;28;20087;-72
2023/04/04 08:15:00;;;;;;;9.32;4.55;;;;;;;4.84;72.03;102913.97;5049274;28;20072;-72
2023/04/04 08:17:27;;;;;;;9.57;4.35;;;;;;;5.92;66.75;102906.97;5049157;28;20033;-72
2023/04/04 08:19:52;;;;;;;11.68;4.45;;;;;;;7.54;58.62;102917.28;5049217;28;20131;-72
2023/04/04 08:22:18;;;;;;;7.65;3.85;;;;;;;8.97;55.13;102919.34;5049103;28;20081;-72
2023/04/04 08:24:43;;;;;;;8.70;3.58;;;;;;;10.26;49.72;102910.28;5046856;28;20103;-72
2023/04/04 08:27:09;;;;;;;7.72;4.00;;;;;;;10.87;47.54;102913.50;5049143;28;20082;-72
2023/04/04 08:29:34;;;;;;;5.88;3.63;;;;;;;11.07;45.54;102911.56;5048866;28;20472;-72
2023/04/04 08:32:00;;;;;;;6.28;3.33;;;;;;;11.24;45.80;102905.44;5049090;28;20052;-68
2023/04/04 08:34:25;;;;;;;5.68;3.17;;;;;;;11.13;43.74;102898.47;5049131;28;20033;-68
2023/04/04 08:36:51;;;;;;;7.70;3.42;;;;;;;11.10;43.51;102892.56;5049114;28;20447;-66
2023/04/04 08:39:17;;;;;;;6.18;3.38;;;;;;;10.16;43.22;102908.63;5049102;28;20060;-66
2023/04/04 08:41:44;;;;;;;6.25;2.10;;;;;;;9.01;46.37;102903.94;5049027;28;20056;-66
2023/04/04 08:44:16;;;;;;;8.80;3.67;;;;;;;8.13;49.62;102897.34;5048955;28;20037;-66
2023/04/04 08:46:44;;;;;;;3.22;2.58;;;;;;;7.59;51.58;102893.84;5048972;28;20610;-66
2023/04/04 08:49:11;;;;;;;10.48;2.92;;;;;;;7.03;49.29;102899.31;5048934;28;20446;-66
2023/04/04 08:51:39;;;;;;;8.30;3.70;;;;;;;6.60;52.83;102905.34;5048726;28;20480;-67
2023/04/04 08:54:05;;;;;;;5.38;3.15;;;;;;;6.29;54.22;102896.31;5048681;28;20083;-68
2023/04/04 08:56:34;;;;;;;5.15;2.65;;;;;;;6.14;52.00;102879.75;5048735;28;20037;-68
2023/04/04 08:58:59;;;;;;;6.80;2.35;;;;;;;6.06;51.61;102893.59;5048848;28;20431;-68
2023/04/04 09:01:28;;;;;;;6.80;3.15;;;;;;;5.97;52.41;102893.44;5048726;28;20025;-68
2023/04/04 09:03:55;;;;;;;7.35;2.65;;;;;;;5.82;53.20;102895.41;5047763;28;20025;-68
2023/04/04 09:06:22;;;;;;;5.82;3.22;;;;;;;5.72;53.70;102897.91;5048891;28;20032;-68
2023/04/04 09:08:50;;;;;;;5.55;3.13;;;;;;;5.63;53.26;102885.34;5047909;28;20040;-67
2023/04/04 09:11:18;;;;;;;7.13;3.10;;;;;;;5.66;54.68;102895.72;5048604;28;20115;-67
2023/04/04 09:13:44;;;;;;;5.78;3.13;;;;;;;5.66;55.79;102909.78;5048739;28;20025;-67
2023/04/04 09:16:09;;;;;;;5.32;3.78;;;;;;;5.59;54.13;102903.25;5048791;28;20423;-67
2023/04/04 09:18:35;;;;;;;4.47;2.50;;;;;;;5.66;54.59;102901.84;5048751;28;20037;-67
2023/04/04 09:21:10;;;;;;;8.27;2.30;;;;;;;5.67;53.90;102892.94;5047473;28;20104;-67
2023/04/04 09:23:36;;;;;;;6.60;2.72;;;;;;;5.71;55.05;102898.84;5048597;28;20025;-67
2023/04/04 09:26:02;;;;;;;5.07;2.67;;;;;;;5.74;53.35;102900.41;5048655;28;20039;-67
2023/04/04 09:28:27;;;;;;;8.10;2.80;;;;;;;5.75;54.19;102899.47;5047117;28;20028;-67
2023/04/04 09:30:53;;;;;;;5.82;2.25;;;;;;;5.69;51.66;102893.69;5048524;28;20132;-67
2023/04/04 09:33:25;;;;;;;7.47;2.25;;;;;;;5.76;54.54;102887.91;5048513;28;20124;-67
2023/04/04 09:35:54;;;;;;;5.47;2.83;;;;;;;5.93;57.15;102885.72;5049390;28;20037;-67
2023/04/04 09:38:22;;;;;;;3.60;2.67;;;;;;;5.99;52.54;102896.81;5052084;28;20052;-67
2023/04/04 09:40:48;;;;;;;5.18;2.17;;;;;;;6.01;53.16;102902.84;5050893;28;20124;-67
2023/04/04 09:43:14;;;;;;;3.58;2.70;;;;;;;5.91;53.95;102884.13;5052134;28;20692;-67
2023/04/04 09:45:43;;;;;;;6.10;2.60;;;;;;;5.97;54.55;102878.38;5052086;28;20032;-68
2023/04/04 09:48:09;;;;;;;4.88;2.70;;;;;;;6.11;57.02;102872.91;5051926;28;20033;-68
2023/04/04 09:50:36;;;;;;;6.35;2.67;;;;;;;6.31;54.03;102881.97;5051736;28;20017;-67
2023/04/04 09:53:01;;;;;;;5.80;2.90;;;;;;;6.40;52.18;102880.41;5051433;28;20067;-67
2023/04/04 09:55:32;;;;;;;3.15;2.60;;;;;;;6.49;53.19;102878.84;5051624;28;20088;-67
2023/04/04 09:57:57;;;;;;;4.82;2.20;;;;;;;6.48;51.29;102880.66;5051791;28;20063;-67
2023/04/04 10:00:28;;;;;;;6.78;1.85;;;;;;;6.49;49.61;102884.97;5051653;28;20025;-67
2023/04/04 10:02:57;;;;;;;6.30;2.53;;;;;;;6.48;50.11;102878.00;5051897;28;20021;-67
2023/04/04 10:05:22;;;;;;;6.45;2.28;;;;;;;6.46;50.03;102884.38;5051564;28;20063;-67
2023/04/04 10:07:48;;;;;;;4.35;2.17;;;;;;;6.40;50.26;102871.63;5050467;28;20492;-68
2023/04/04 10:10:14;;;;;;;5.32;2.25;;;;;;;6.48;51.16;102875.34;5051505;28;20076;-68
2023/04/04 10:12:40;;;;;;;4.95;2.38;;;;;;;6.53;50.14;102872.34;5051630;28;20088;-68
2023/04/04 10:15:07;;;;;;;5.38;2.38;;;;;;;6.69;50.44;102875.47;5051145;28;20949;-68
2023/04/04 10:17:37;;;;;;;6.78;2.35;;;;;;;6.83;51.55;102869.06;5051455;28;20112;-68
2023/04/04 10:20:10;;;;;;;4.13;2.33;;;;;;;6.83;50.10;102879.66;5051339;28;20116;-67
2023/04/04 10:22:37;;;;;;;4.65;2.30;;;;;;;6.70;49.50;102868.34;5051433;28;20032;-67
2023/04/04 10:25:06;;;;;;;4.43;2.10;;;;;;;6.76;49.92;102858.13;5051630;28;20033;-67
2023/04/04 10:27:32;;;;;;;5.07;2.25;;;;;;;6.81;49.51;102865.69;5051190;28;20035;-67
2023/04/04 10:29:59;;;;;;;4.22;2.10;;;;;;;6.79;48.76;102860.53;5051298;28;20060;-68
2023/04/04 10:33:01;;;;;;;7.78;2.70;;;;;;;6.81;51.51;102855.06;5048641;28;20525;-71
2023/04/04 10:35:28;;;;;;;5.68;3.15;;;;;;;6.85;50.15;102858.34;5035961;28;20208;-70
2023/04/04 10:37:58;;;;;;;5.03;2.75;;;;;;;6.84;49.40;102862.81;5036421;28;20966;-70
2023/04/04 10:40:31;;;;;;;3.60;2.95;;;;;;;6.90;49.56;102864.13;5037314;28;20038;-72
2023/04/04 10:43:01;;;;;;;7.53;2.50;;;;;;;6.92;47.11;102854.25;5036385;28;20066;-73
2023/04/04 10:45:28;;;;;;;4.28;2.50;;;;;;;6.94;48.18;102857.59;5036249;28;20052;-74
2023/04/04 10:47:54;;;;;;;8.43;2.60;;;;;;;6.96;51.48;102853.84;5036304;28;20043;-73
2023/04/04 10:50:19;;;;;;;5.40;2.88;;;;;;;7.02;48.93;102845.41;5041944;28;20032;-70
2023/04/04 10:52:45;;;;;;;7.20;2.58;;;;;;;7.15;48.96;102847.06;5049772;28;20059;-68
2023/04/04 10:55:12;;;;;;;4.60;2.47;;;;;;;7.23;48.61;102834.00;5050699;28;20496;-67
2023/04/04 10:57:44;;;;;;;4.43;2.60;;;;;;;7.02;47.87;102833.94;5050889;28;20056;-67
2023/04/04 11:00:12;;;;;;;7.18;2.88;;;;;;;7.03;49.44;102833.00;5050801;28;20014;-67
2023/04/04 11:02:47;;;;;;;6.35;2.65;;;;;;;7.15;48.75;102839.09;5050649;28;20033;-67
2023/04/04 11:05:39;;;;;;;4.88;2.42;;;;;;;7.34;51.44;102833.97;5050505;28;20062;-67
2023/04/04 11:08:09;;;;;;;7.93;2.92;;;;;;;7.40;49.74;102824.66;5050371;28;20967;-67
2023/04/04 11:10:42;;;;;;;4.80;2.17;;;;;;;7.39;49.32;102833.63;5050299;28;20123;-67
2023/04/04 11:13:12;;;;;;;3.38;2.03;;;;;;;7.39;49.85;102825.66;5050386;28;20436;-67
2023/04/04 11:15:50;;;;;;;4.60;2.58;;;;;;;7.34;49.42;102817.22;5050147;28;20119;-67
2023/04/04 11:18:19;;;;;;;5.65;2.25;;;;;;;7.25;47.46;102819.63;5050172;28;20101;-67
2023/04/04 11:20:47;;;;;;;8.85;3.25;;;;;;;7.27;49.88;102806.25;5049971;28;20404;-67
2023/04/04 11:23:24;;;;;;;9.02;3.20;;;;;;;7.45;50.59;102809.19;5049813;28;20103;-67
2023/04/04 11:25:51;;;;;;;4.20;2.15;;;;;;;7.58;50.70;102809.84;5050047;28;20036;-68